sensor_id;sensor_type;location;lat;lon;timestamp;P1;durP1;ratioP1;P2;durP2;ratioP2
27857;SDS011;16852;51.446;6.528;2023-12-22T00:00:09;7.28;;;1.38;;
27857;SDS011;16852;51.446;6.528;2023-12-22T00:02:10;10.13;;;2.08;;
27857;SDS011;16852;51.446;6.528;2023-12-22T00:04:11;5.13;;;1.20;;
27857;SDS011;16852;51.446;6.528;2023-12-22T00:06:12;8.98;;;1.90;;
27857;SDS011;16852;51.446;6.528;2023-12-22T00:08:12;9.38;;;1.75;;
27857;SDS011;16852;51.446;6.528;2023-12-22T00:10:13;11.70;;;1.63;;
27857;SDS011;16852;51.446;6.528;2023-12-22T00:12:14;9.05;;;1.80;;
27857;SDS011;16852;51.446;6.528;2023-12-22T00:14:14;9.10;;;1.42;;
27857;SDS011;16852;51.446;6.528;2023-12-22T00:16:15;13.35;;;2.33;;
27857;SDS011;16852;51.446;6.528;2023-12-22T00:18:15;7.80;;;1.95;;
27857;SDS011;16852;51.446;6.528;2023-12-22T00:20:16;7.90;;;2.20;;
27857;SDS011;16852;51.446;6.528;2023-12-22T00:22:17;13.18;;;2.42;;
27857;SDS011;16852;51.446;6.528;2023-12-22T00:24:17;9.95;;;2.28;;
27857;SDS011;16852;51.446;6.528;2023-12-22T00:26:18;10.02;;;1.95;;
27857;SDS011;16852;51.446;6.528;2023-12-22T00:28:18;10.27;;;2.38;;
27857;SDS011;16852;51.446;6.528;2023-12-22T00:30:19;7.80;;;1.80;;
27857;SDS011;16852;51.446;6.528;2023-12-22T00:32:19;7.68;;;1.98;;
27857;SDS011;16852;51.446;6.528;2023-12-22T00:34:21;10.93;;;1.58;;
27857;SDS011;16852;51.446;6.528;2023-12-22T00:36:22;9.50;;;2.03;;
27857;SDS011;16852;51.446;6.528;2023-12-22T00:38:24;12.95;;;2.50;;
27857;SDS011;16852;51.446;6.528;2023-12-22T00:40:25;8.88;;;1.70;;
27857;SDS011;16852;51.446;6.528;2023-12-22T00:42:25;13.93;;;2.30;;
27857;SDS011;16852;51.446;6.528;2023-12-22T00:44:26;13.20;;;2.25;;
27857;SDS011;16852;51.446;6.528;2023-12-22T00:46:28;16.52;;;2.65;;
27857;SDS011;16852;51.446;6.528;2023-12-22T00:48:29;11.45;;;1.85;;
27857;SDS011;16852;51.446;6.528;2023-12-22T00:50:30;9.98;;;2.03;;
27857;SDS011;16852;51.446;6.528;2023-12-22T00:52:31;17.58;;;2.47;;
27857;SDS011;16852;51.446;6.528;2023-12-22T00:54:32;18.92;;;3.10;;
27857;SDS011;16852;51.446;6.528;2023-12-22T00:56:32;7.88;;;2.10;;
27857;SDS011;16852;51.446;6.528;2023-12-22T00:58:33;19.55;;;2.47;;
27857;SDS011;16852;51.446;6.528;2023-12-22T01:00:33;9.15;;;1.77;;
27857;SDS011;16852;51.446;6.528;2023-12-22T01:02:34;10.02;;;2.70;;
27857;SDS011;16852;51.446;6.528;2023-12-22T01:04:34;13.32;;;2.45;;
27857;SDS011;16852;51.446;6.528;2023-12-22T01:06:38;15.50;;;1.90;;
27857;SDS011;16852;51.446;6.528;2023-12-22T01:08:39;8.90;;;1.92;;
27857;SDS011;16852;51.446;6.528;2023-12-22T01:10:39;5.50;;;1.88;;
27857;SDS011;16852;51.446;6.528;2023-12-22T01:12:40;14.93;;;2.20;;
27857;SDS011;16852;51.446;6.528;2023-12-22T01:14:40;8.55;;;1.75;;
27857;SDS011;16852;51.446;6.528;2023-12-22T01:16:41;11.82;;;2.28;;
27857;SDS011;16852;51.446;6.528;2023-12-22T01:18:42;6.93;;;1.42;;
27857;SDS011;16852;51.446;6.528;2023-12-22T01:20:44;9.10;;;1.88;;
27857;SDS011;16852;51.446;6.528;2023-12-22T01:22:44;7.75;;;1.60;;
27857;SDS011;16852;51.446;6.528;2023-12-22T01:24:45;12.23;;;2.17;;
27857;SDS011;16852;51.446;6.528;2023-12-22T01:26:46;12.32;;;2.42;;
27857;SDS011;16852;51.446;6.528;2023-12-22T01:28:46;8.95;;;1.77;;
27857;SDS011;16852;51.446;6.528;2023-12-22T01:30:47;17.25;;;2.35;;
27857;SDS011;16852;51.446;6.528;2023-12-22T01:32:47;6.72;;;1.67;;
27857;SDS011;16852;51.446;6.528;2023-12-22T01:34:48;14.05;;;2.38;;
27857;SDS011;16852;51.446;6.528;2023-12-22T01:36:48;13.77;;;2.72;;
27857;SDS011;16852;51.446;6.528;2023-12-22T01:38:49;16.08;;;2.92;;
27857;SDS011;16852;51.446;6.528;2023-12-22T01:40:50;12.98;;;2.90;;
27857;SDS011;16852;51.446;6.528;2023-12-22T01:42:51;12.02;;;1.83;;
27857;SDS011;16852;51.446;6.528;2023-12-22T01:44:51;10.95;;;2.20;;
27857;SDS011;16852;51.446;6.528;2023-12-22T01:46:52;8.48;;;2.13;;
27857;SDS011;16852;51.446;6.528;2023-12-22T01:48:53;10.70;;;1.80;;
27857;SDS011;16852;51.446;6.528;2023-12-22T01:50:54;9.40;;;2.10;;
27857;SDS011;16852;51.446;6.528;2023-12-22T01:54:57;8.77;;;2.08;;
27857;SDS011;16852;51.446;6.528;2023-12-22T01:56:57;10.48;;;1.88;;
27857;SDS011;16852;51.446;6.528;2023-12-22T01:58:59;7.43;;;1.75;;
27857;SDS011;16852;51.446;6.528;2023-12-22T02:01:01;5.05;;;1.40;;
27857;SDS011;16852;51.446;6.528;2023-12-22T02:03:02;8.15;;;1.27;;
27857;SDS011;16852;51.446;6.528;2023-12-22T02:05:04;5.78;;;1.40;;
27857;SDS011;16852;51.446;6.528;2023-12-22T02:07:05;7.68;;;1.65;;
27857;SDS011;16852;51.446;6.528;2023-12-22T02:09:08;6.32;;;1.20;;
27857;SDS011;16852;51.446;6.528;2023-12-22T02:11:09;7.68;;;1.52;;
27857;SDS011;16852;51.446;6.528;2023-12-22T02:13:09;8.45;;;1.50;;
27857;SDS011;16852;51.446;6.528;2023-12-22T02:15:11;6.78;;;1.33;;
27857;SDS011;16852;51.446;6.528;2023-12-22T02:17:15;8.75;;;1.83;;
27857;SDS011;16852;51.446;6.528;2023-12-22T02:19:38;5.43;;;1.30;;
27857;SDS011;16852;51.446;6.528;2023-12-22T02:21:59;6.35;;;1.40;;
27857;SDS011;16852;51.446;6.528;2023-12-22T02:24:01;9.50;;;1.48;;
27857;SDS011;16852;51.446;6.528;2023-12-22T02:26:44;4.55;;;1.23;;
27857;SDS011;16852;51.446;6.528;2023-12-22T02:28:28;4.93;;;1.33;;
27857;SDS011;16852;51.446;6.528;2023-12-22T02:32:51;8.88;;;1.52;;
27857;SDS011;16852;51.446;6.528;2023-12-22T02:34:56;10.48;;;1.55;;
27857;SDS011;16852;51.446;6.528;2023-12-22T02:36:57;12.32;;;1.75;;
27857;SDS011;16852;51.446;6.528;2023-12-22T02:38:58;5.85;;;1.52;;
27857;SDS011;16852;51.446;6.528;2023-12-22T02:41:00;5.13;;;1.55;;
27857;SDS011;16852;51.446;6.528;2023-12-22T02:43:01;9.48;;;1.85;;
27857;SDS011;16852;51.446;6.528;2023-12-22T02:45:03;5.68;;;1.33;;
27857;SDS011;16852;51.446;6.528;2023-12-22T02:47:05;9.07;;;1.70;;
27857;SDS011;16852;51.446;6.528;2023-12-22T02:49:05;4.95;;;0.88;;
27857;SDS011;16852;51.446;6.528;2023-12-22T02:51:06;7.90;;;1.83;;
27857;SDS011;16852;51.446;6.528;2023-12-22T02:53:07;7.18;;;1.23;;
27857;SDS011;16852;51.446;6.528;2023-12-22T02:55:07;6.88;;;1.60;;
27857;SDS011;16852;51.446;6.528;2023-12-22T02:57:08;8.70;;;1.60;;
27857;SDS011;16852;51.446;6.528;2023-12-22T02:59:09;10.23;;;1.85;;
27857;SDS011;16852;51.446;6.528;2023-12-22T03:01:09;10.05;;;1.85;;
27857;SDS011;16852;51.446;6.528;2023-12-22T03:03:10;7.97;;;1.23;;
27857;SDS011;16852;51.446;6.528;2023-12-22T03:05:11;10.27;;;1.77;;
27857;SDS011;16852;51.446;6.528;2023-12-22T03:07:12;10.32;;;2.13;;
27857;SDS011;16852;51.446;6.528;2023-12-22T03:09:12;7.47;;;1.65;;
27857;SDS011;16852;51.446;6.528;2023-12-22T03:11:13;8.70;;;1.98;;
27857;SDS011;16852;51.446;6.528;2023-12-22T03:13:14;10.45;;;1.63;;
27857;SDS011;16852;51.446;6.528;2023-12-22T03:15:14;7.35;;;1.73;;
27857;SDS011;16852;51.446;6.528;2023-12-22T03:17:15;4.78;;;1.60;;
27857;SDS011;16852;51.446;6.528;2023-12-22T03:19:15;6.72;;;1.50;;
27857;SDS011;16852;51.446;6.528;2023-12-22T03:21:17;4.25;;;1.10;;
27857;SDS011;16852;51.446;6.528;2023-12-22T03:23:19;7.70;;;1.20;;
27857;SDS011;16852;51.446;6.528;2023-12-22T03:25:19;7.22;;;1.70;;
27857;SDS011;16852;51.446;6.528;2023-12-22T03:27:20;5.88;;;1.33;;
27857;SDS011;16852;51.446;6.528;2023-12-22T03:29:20;5.13;;;1.50;;
27857;SDS011;16852;51.446;6.528;2023-12-22T03:31:21;8.18;;;1.33;;
27857;SDS011;16852;51.446;6.528;2023-12-22T03:33:21;8.45;;;1.77;;
27857;SDS011;16852;51.446;6.528;2023-12-22T03:35:22;5.00;;;1.20;;
27857;SDS011;16852;51.446;6.528;2023-12-22T03:37:22;9.07;;;1.80;;
27857;SDS011;16852;51.446;6.528;2023-12-22T03:39:23;4.60;;;1.48;;
27857;SDS011;16852;51.446;6.528;2023-12-22T03:41:24;7.40;;;1.50;;
27857;SDS011;16852;51.446;6.528;2023-12-22T03:43:24;4.45;;;1.27;;
27857;SDS011;16852;51.446;6.528;2023-12-22T03:45:25;7.38;;;1.75;;
27857;SDS011;16852;51.446;6.528;2023-12-22T03:47:25;7.82;;;1.70;;
27857;SDS011;16852;51.446;6.528;2023-12-22T03:49:26;14.00;;;2.28;;
27857;SDS011;16852;51.446;6.528;2023-12-22T03:51:26;8.63;;;2.10;;
27857;SDS011;16852;51.446;6.528;2023-12-22T03:53:27;7.85;;;2.13;;
27857;SDS011;16852;51.446;6.528;2023-12-22T03:55:28;6.20;;;1.67;;
27857;SDS011;16852;51.446;6.528;2023-12-22T03:57:28;15.77;;;3.17;;
27857;SDS011;16852;51.446;6.528;2023-12-22T03:59:29;15.85;;;3.15;;
27857;SDS011;16852;51.446;6.528;2023-12-22T04:01:29;21.92;;;3.55;;
27857;SDS011;16852;51.446;6.528;2023-12-22T04:03:30;19.38;;;2.70;;
27857;SDS011;16852;51.446;6.528;2023-12-22T04:05:30;18.67;;;2.92;;
27857;SDS011;16852;51.446;6.528;2023-12-22T04:07:31;16.70;;;3.22;;
27857;SDS011;16852;51.446;6.528;2023-12-22T04:09:31;13.23;;;2.60;;
27857;SDS011;16852;51.446;6.528;2023-12-22T04:11:32;19.70;;;3.28;;
27857;SDS011;16852;51.446;6.528;2023-12-22T04:13:34;18.00;;;2.60;;
27857;SDS011;16852;51.446;6.528;2023-12-22T04:15:35;11.85;;;2.40;;
27857;SDS011;16852;51.446;6.528;2023-12-22T04:17:35;14.00;;;2.78;;
27857;SDS011;16852;51.446;6.528;2023-12-22T04:19:36;14.18;;;3.35;;
27857;SDS011;16852;51.446;6.528;2023-12-22T04:21:37;14.77;;;3.00;;
27857;SDS011;16852;51.446;6.528;2023-12-22T04:23:37;21.35;;;3.30;;
27857;SDS011;16852;51.446;6.528;2023-12-22T04:25:38;13.23;;;2.50;;
27857;SDS011;16852;51.446;6.528;2023-12-22T04:27:38;15.13;;;3.00;;
27857;SDS011;16852;51.446;6.528;2023-12-22T04:29:39;12.52;;;2.63;;
27857;SDS011;16852;51.446;6.528;2023-12-22T04:31:39;15.32;;;2.58;;
27857;SDS011;16852;51.446;6.528;2023-12-22T04:33:40;15.02;;;3.70;;
27857;SDS011;16852;51.446;6.528;2023-12-22T04:35:41;13.88;;;3.05;;
27857;SDS011;16852;51.446;6.528;2023-12-22T04:37:41;12.65;;;2.97;;
27857;SDS011;16852;51.446;6.528;2023-12-22T04:39:42;15.10;;;2.50;;
27857;SDS011;16852;51.446;6.528;2023-12-22T04:41:42;18.75;;;3.22;;
27857;SDS011;16852;51.446;6.528;2023-12-22T04:43:43;18.17;;;2.90;;
27857;SDS011;16852;51.446;6.528;2023-12-22T04:45:43;16.55;;;3.13;;
27857;SDS011;16852;51.446;6.528;2023-12-22T04:47:44;16.88;;;3.13;;
27857;SDS011;16852;51.446;6.528;2023-12-22T04:49:44;20.67;;;3.70;;
27857;SDS011;16852;51.446;6.528;2023-12-22T04:51:45;30.50;;;3.30;;
27857;SDS011;16852;51.446;6.528;2023-12-22T04:53:46;11.60;;;3.03;;
27857;SDS011;16852;51.446;6.528;2023-12-22T04:55:46;16.42;;;3.30;;
27857;SDS011;16852;51.446;6.528;2023-12-22T04:57:47;13.95;;;2.45;;
27857;SDS011;16852;51.446;6.528;2023-12-22T04:59:47;17.98;;;3.17;;
27857;SDS011;16852;51.446;6.528;2023-12-22T05:01:48;17.90;;;3.65;;
27857;SDS011;16852;51.446;6.528;2023-12-22T05:03:49;19.02;;;4.00;;
27857;SDS011;16852;51.446;6.528;2023-12-22T05:05:49;19.27;;;3.50;;
27857;SDS011;16852;51.446;6.528;2023-12-22T05:07:50;16.63;;;3.75;;
27857;SDS011;16852;51.446;6.528;2023-12-22T05:09:50;20.17;;;3.28;;
27857;SDS011;16852;51.446;6.528;2023-12-22T05:11:52;19.30;;;3.42;;
27857;SDS011;16852;51.446;6.528;2023-12-22T05:13:53;16.55;;;2.90;;
27857;SDS011;16852;51.446;6.528;2023-12-22T05:15:53;22.55;;;3.33;;
27857;SDS011;16852;51.446;6.528;2023-12-22T05:17:55;14.32;;;3.42;;
27857;SDS011;16852;51.446;6.528;2023-12-22T05:19:55;18.63;;;3.78;;
27857;SDS011;16852;51.446;6.528;2023-12-22T05:21:56;18.60;;;3.13;;
27857;SDS011;16852;51.446;6.528;2023-12-22T05:23:57;10.35;;;2.55;;
27857;SDS011;16852;51.446;6.528;2023-12-22T05:25:57;9.77;;;1.92;;
27857;SDS011;16852;51.446;6.528;2023-12-22T05:27:58;13.07;;;2.20;;
27857;SDS011;16852;51.446;6.528;2023-12-22T05:29:59;6.28;;;1.75;;
27857;SDS011;16852;51.446;6.528;2023-12-22T05:32:01;13.75;;;1.95;;
27857;SDS011;16852;51.446;6.528;2023-12-22T05:34:02;11.63;;;2.08;;
27857;SDS011;16852;51.446;6.528;2023-12-22T05:36:04;5.80;;;1.40;;
27857;SDS011;16852;51.446;6.528;2023-12-22T05:38:04;5.70;;;1.65;;
27857;SDS011;16852;51.446;6.528;2023-12-22T05:40:05;8.40;;;1.52;;
27857;SDS011;16852;51.446;6.528;2023-12-22T05:42:07;6.35;;;1.35;;
27857;SDS011;16852;51.446;6.528;2023-12-22T05:44:07;11.98;;;2.50;;
27857;SDS011;16852;51.446;6.528;2023-12-22T05:46:08;7.50;;;2.00;;
27857;SDS011;16852;51.446;6.528;2023-12-22T05:48:09;10.50;;;2.13;;
27857;SDS011;16852;51.446;6.528;2023-12-22T05:50:10;12.88;;;2.25;;
27857;SDS011;16852;51.446;6.528;2023-12-22T05:52:12;11.30;;;2.17;;
27857;SDS011;16852;51.446;6.528;2023-12-22T05:54:13;8.18;;;2.00;;
27857;SDS011;16852;51.446;6.528;2023-12-22T05:56:17;17.77;;;2.78;;
27857;SDS011;16852;51.446;6.528;2023-12-22T05:58:19;9.90;;;2.80;;
27857;SDS011;16852;51.446;6.528;2023-12-22T06:00:19;12.55;;;2.50;;
27857;SDS011;16852;51.446;6.528;2023-12-22T06:02:20;14.43;;;2.65;;
27857;SDS011;16852;51.446;6.528;2023-12-22T06:04:21;22.30;;;3.97;;
27857;SDS011;16852;51.446;6.528;2023-12-22T06:06:21;14.95;;;2.58;;
27857;SDS011;16852;51.446;6.528;2023-12-22T06:08:22;11.55;;;2.80;;
27857;SDS011;16852;51.446;6.528;2023-12-22T06:10:23;11.20;;;2.40;;
27857;SDS011;16852;51.446;6.528;2023-12-22T06:12:24;19.88;;;3.47;;
27857;SDS011;16852;51.446;6.528;2023-12-22T06:14:24;16.10;;;3.25;;
27857;SDS011;16852;51.446;6.528;2023-12-22T06:16:25;11.60;;;2.53;;
27857;SDS011;16852;51.446;6.528;2023-12-22T06:18:25;18.42;;;3.33;;
27857;SDS011;16852;51.446;6.528;2023-12-22T06:20:26;11.57;;;2.35;;
27857;SDS011;16852;51.446;6.528;2023-12-22T06:22:27;9.30;;;2.22;;
27857;SDS011;16852;51.446;6.528;2023-12-22T06:24:27;10.07;;;1.88;;
27857;SDS011;16852;51.446;6.528;2023-12-22T06:26:28;15.00;;;3.20;;
27857;SDS011;16852;51.446;6.528;2023-12-22T06:28:28;16.65;;;2.50;;
27857;SDS011;16852;51.446;6.528;2023-12-22T06:30:29;11.90;;;2.75;;
27857;SDS011;16852;51.446;6.528;2023-12-22T06:32:30;18.23;;;3.13;;
27857;SDS011;16852;51.446;6.528;2023-12-22T06:34:31;9.75;;;2.10;;
27857;SDS011;16852;51.446;6.528;2023-12-22T06:36:32;13.77;;;2.83;;
27857;SDS011;16852;51.446;6.528;2023-12-22T06:38:32;7.38;;;2.33;;
27857;SDS011;16852;51.446;6.528;2023-12-22T06:40:34;21.30;;;3.33;;
27857;SDS011;16852;51.446;6.528;2023-12-22T06:42:35;15.82;;;2.60;;
27857;SDS011;16852;51.446;6.528;2023-12-22T06:44:35;16.10;;;3.15;;
27857;SDS011;16852;51.446;6.528;2023-12-22T06:46:36;9.00;;;2.10;;
27857;SDS011;16852;51.446;6.528;2023-12-22T06:48:38;12.05;;;2.13;;
27857;SDS011;16852;51.446;6.528;2023-12-22T06:50:39;7.15;;;2.22;;
27857;SDS011;16852;51.446;6.528;2023-12-22T06:52:39;17.00;;;2.90;;
27857;SDS011;16852;51.446;6.528;2023-12-22T06:54:40;18.45;;;2.65;;
27857;SDS011;16852;51.446;6.528;2023-12-22T06:56:40;10.38;;;2.47;;
27857;SDS011;16852;51.446;6.528;2023-12-22T06:58:41;13.88;;;2.53;;
27857;SDS011;16852;51.446;6.528;2023-12-22T07:00:42;12.00;;;2.17;;
27857;SDS011;16852;51.446;6.528;2023-12-22T07:02:42;10.70;;;2.28;;
27857;SDS011;16852;51.446;6.528;2023-12-22T07:07:26;13.05;;;2.80;;
27857;SDS011;16852;51.446;6.528;2023-12-22T07:09:27;12.00;;;2.65;;
27857;SDS011;16852;51.446;6.528;2023-12-22T07:11:28;8.23;;;1.88;;
27857;SDS011;16852;51.446;6.528;2023-12-22T07:13:29;15.57;;;3.15;;
27857;SDS011;16852;51.446;6.528;2023-12-22T07:15:29;10.45;;;2.50;;
27857;SDS011;16852;51.446;6.528;2023-12-22T07:17:30;17.25;;;2.67;;
27857;SDS011;16852;51.446;6.528;2023-12-22T07:19:30;10.05;;;2.53;;
27857;SDS011;16852;51.446;6.528;2023-12-22T07:21:31;10.10;;;2.92;;
27857;SDS011;16852;51.446;6.528;2023-12-22T07:23:32;10.77;;;2.25;;
27857;SDS011;16852;51.446;6.528;2023-12-22T07:25:36;14.57;;;3.42;;
27857;SDS011;16852;51.446;6.528;2023-12-22T07:27:38;14.80;;;3.42;;
27857;SDS011;16852;51.446;6.528;2023-12-22T07:29:38;11.57;;;2.78;;
27857;SDS011;16852;51.446;6.528;2023-12-22T07:31:39;14.98;;;3.38;;
27857;SDS011;16852;51.446;6.528;2023-12-22T07:33:40;14.57;;;3.30;;
27857;SDS011;16852;51.446;6.528;2023-12-22T07:35:40;14.40;;;3.58;;
27857;SDS011;16852;51.446;6.528;2023-12-22T07:37:41;16.70;;;3.38;;
27857;SDS011;16852;51.446;6.528;2023-12-22T07:39:42;18.45;;;3.63;;
27857;SDS011;16852;51.446;6.528;2023-12-22T07:41:45;19.38;;;3.60;;
27857;SDS011;16852;51.446;6.528;2023-12-22T07:43:45;22.80;;;4.32;;
27857;SDS011;16852;51.446;6.528;2023-12-22T07:45:46;19.95;;;3.83;;
27857;SDS011;16852;51.446;6.528;2023-12-22T07:47:47;22.30;;;4.07;;
27857;SDS011;16852;51.446;6.528;2023-12-22T07:49:48;24.45;;;4.85;;
27857;SDS011;16852;51.446;6.528;2023-12-22T07:51:52;18.58;;;3.60;;
27857;SDS011;16852;51.446;6.528;2023-12-22T07:53:53;19.83;;;3.90;;
27857;SDS011;16852;51.446;6.528;2023-12-22T07:55:53;29.70;;;4.40;;
27857;SDS011;16852;51.446;6.528;2023-12-22T07:57:54;22.15;;;4.18;;
27857;SDS011;16852;51.446;6.528;2023-12-22T07:59:55;24.75;;;4.85;;
27857;SDS011;16852;51.446;6.528;2023-12-22T08:01:56;24.70;;;5.25;;
27857;SDS011;16852;51.446;6.528;2023-12-22T08:03:57;20.67;;;4.93;;
27857;SDS011;16852;51.446;6.528;2023-12-22T08:05:57;20.33;;;4.65;;
27857;SDS011;16852;51.446;6.528;2023-12-22T08:07:58;24.60;;;5.30;;
27857;SDS011;16852;51.446;6.528;2023-12-22T08:09:58;22.80;;;4.40;;
27857;SDS011;16852;51.446;6.528;2023-12-22T08:11:59;27.67;;;4.55;;
27857;SDS011;16852;51.446;6.528;2023-12-22T08:14:00;20.92;;;4.72;;
27857;SDS011;16852;51.446;6.528;2023-12-22T08:16:00;25.15;;;5.63;;
27857;SDS011;16852;51.446;6.528;2023-12-22T08:18:07;21.95;;;4.45;;
27857;SDS011;16852;51.446;6.528;2023-12-22T08:20:08;25.77;;;5.00;;
27857;SDS011;16852;51.446;6.528;2023-12-22T08:22:10;32.47;;;6.10;;
27857;SDS011;16852;51.446;6.528;2023-12-22T08:26:13;28.80;;;4.60;;
27857;SDS011;16852;51.446;6.528;2023-12-22T08:28:17;26.75;;;5.35;;
27857;SDS011;16852;51.446;6.528;2023-12-22T08:30:17;29.75;;;5.72;;
27857;SDS011;16852;51.446;6.528;2023-12-22T08:32:18;30.73;;;6.35;;
27857;SDS011;16852;51.446;6.528;2023-12-22T08:34:19;22.33;;;5.00;;
27857;SDS011;16852;51.446;6.528;2023-12-22T08:36:20;35.55;;;6.47;;
27857;SDS011;16852;51.446;6.528;2023-12-22T08:38:20;22.02;;;4.97;;
27857;SDS011;16852;51.446;6.528;2023-12-22T08:40:21;33.65;;;5.90;;
27857;SDS011;16852;51.446;6.528;2023-12-22T08:42:25;31.17;;;5.82;;
27857;SDS011;16852;51.446;6.528;2023-12-22T08:44:28;29.48;;;5.65;;
27857;SDS011;16852;51.446;6.528;2023-12-22T08:46:29;31.92;;;6.30;;
27857;SDS011;16852;51.446;6.528;2023-12-22T08:48:30;21.92;;;5.28;;
27857;SDS011;16852;51.446;6.528;2023-12-22T08:50:31;22.15;;;5.07;;
27857;SDS011;16852;51.446;6.528;2023-12-22T08:52:32;24.33;;;5.53;;
27857;SDS011;16852;51.446;6.528;2023-12-22T08:54:33;29.45;;;5.22;;
27857;SDS011;16852;51.446;6.528;2023-12-22T08:56:35;27.60;;;5.25;;
27857;SDS011;16852;51.446;6.528;2023-12-22T08:58:35;19.88;;;4.85;;
27857;SDS011;16852;51.446;6.528;2023-12-22T09:00:36;23.33;;;5.05;;
27857;SDS011;16852;51.446;6.528;2023-12-22T09:02:36;22.48;;;5.07;;
27857;SDS011;16852;51.446;6.528;2023-12-22T09:04:37;30.08;;;6.53;;
27857;SDS011;16852;51.446;6.528;2023-12-22T09:06:38;32.70;;;5.95;;
27857;SDS011;16852;51.446;6.528;2023-12-22T09:08:42;24.58;;;5.25;;
27857;SDS011;16852;51.446;6.528;2023-12-22T09:10:43;28.10;;;5.47;;
27857;SDS011;16852;51.446;6.528;2023-12-22T09:12:45;21.10;;;4.40;;
27857;SDS011;16852;51.446;6.528;2023-12-22T09:14:45;35.78;;;6.32;;
27857;SDS011;16852;51.446;6.528;2023-12-22T09:16:46;33.03;;;5.20;;
27857;SDS011;16852;51.446;6.528;2023-12-22T09:18:46;22.25;;;5.35;;
27857;SDS011;16852;51.446;6.528;2023-12-22T09:20:47;27.50;;;5.07;;
27857;SDS011;16852;51.446;6.528;2023-12-22T09:22:48;26.45;;;5.72;;
27857;SDS011;16852;51.446;6.528;2023-12-22T09:24:49;25.95;;;5.55;;
27857;SDS011;16852;51.446;6.528;2023-12-22T09:26:50;29.60;;;5.00;;
27857;SDS011;16852;51.446;6.528;2023-12-22T09:28:51;24.20;;;4.38;;
27857;SDS011;16852;51.446;6.528;2023-12-22T09:30:51;22.30;;;4.10;;
27857;SDS011;16852;51.446;6.528;2023-12-22T09:32:52;23.90;;;4.82;;
27857;SDS011;16852;51.446;6.528;2023-12-22T09:34:53;17.50;;;4.68;;
27857;SDS011;16852;51.446;6.528;2023-12-22T09:36:55;20.55;;;3.83;;
27857;SDS011;16852;51.446;6.528;2023-12-22T09:38:56;23.88;;;4.88;;
27857;SDS011;16852;51.446;6.528;2023-12-22T09:40:57;19.92;;;4.32;;
27857;SDS011;16852;51.446;6.528;2023-12-22T09:42:58;15.05;;;3.67;;
27857;SDS011;16852;51.446;6.528;2023-12-22T09:44:59;21.40;;;4.25;;
27857;SDS011;16852;51.446;6.528;2023-12-22T09:47:03;17.58;;;4.03;;
27857;SDS011;16852;51.446;6.528;2023-12-22T09:49:06;20.10;;;4.22;;
27857;SDS011;16852;51.446;6.528;2023-12-22T09:51:07;21.33;;;4.43;;
27857;SDS011;16852;51.446;6.528;2023-12-22T09:55:15;15.40;;;3.00;;
27857;SDS011;16852;51.446;6.528;2023-12-22T09:57:17;13.43;;;2.97;;
27857;SDS011;16852;51.446;6.528;2023-12-22T09:59:18;15.85;;;3.10;;
27857;SDS011;16852;51.446;6.528;2023-12-22T10:01:21;14.35;;;3.25;;
27857;SDS011;16852;51.446;6.528;2023-12-22T10:03:23;13.60;;;2.85;;
27857;SDS011;16852;51.446;6.528;2023-12-22T10:05:26;25.92;;;4.15;;
27857;SDS011;16852;51.446;6.528;2023-12-22T10:07:26;21.15;;;3.45;;
27857;SDS011;16852;51.446;6.528;2023-12-22T10:09:28;11.67;;;2.83;;
27857;SDS011;16852;51.446;6.528;2023-12-22T10:11:29;16.92;;;3.17;;
27857;SDS011;16852;51.446;6.528;2023-12-22T10:13:32;11.77;;;2.78;;
27857;SDS011;16852;51.446;6.528;2023-12-22T10:15:39;16.08;;;2.92;;
27857;SDS011;16852;51.446;6.528;2023-12-22T10:17:43;16.95;;;2.72;;
27857;SDS011;16852;51.446;6.528;2023-12-22T10:19:44;10.45;;;2.25;;
27857;SDS011;16852;51.446;6.528;2023-12-22T10:21:44;14.93;;;2.45;;
27857;SDS011;16852;51.446;6.528;2023-12-22T10:23:45;10.48;;;2.40;;
27857;SDS011;16852;51.446;6.528;2023-12-22T10:25:46;9.70;;;2.42;;
27857;SDS011;16852;51.446;6.528;2023-12-22T10:27:47;8.85;;;2.30;;
27857;SDS011;16852;51.446;6.528;2023-12-22T10:29:48;8.32;;;2.10;;
27857;SDS011;16852;51.446;6.528;2023-12-22T10:31:50;9.30;;;1.75;;
27857;SDS011;16852;51.446;6.528;2023-12-22T10:33:50;9.65;;;2.20;;
27857;SDS011;16852;51.446;6.528;2023-12-22T10:35:51;7.65;;;2.00;;
27857;SDS011;16852;51.446;6.528;2023-12-22T10:39:55;7.53;;;1.98;;
27857;SDS011;16852;51.446;6.528;2023-12-22T10:41:57;9.68;;;1.60;;
27857;SDS011;16852;51.446;6.528;2023-12-22T10:43:58;8.27;;;2.00;;
27857;SDS011;16852;51.446;6.528;2023-12-22T10:45:58;5.68;;;1.55;;
27857;SDS011;16852;51.446;6.528;2023-12-22T10:47:59;11.60;;;1.90;;
27857;SDS011;16852;51.446;6.528;2023-12-22T10:50:04;8.55;;;1.88;;
27857;SDS011;16852;51.446;6.528;2023-12-22T10:52:05;6.38;;;1.98;;
27857;SDS011;16852;51.446;6.528;2023-12-22T10:54:06;9.73;;;1.63;;
27857;SDS011;16852;51.446;6.528;2023-12-22T10:56:07;7.53;;;1.98;;
27857;SDS011;16852;51.446;6.528;2023-12-22T10:58:07;7.82;;;1.67;;
27857;SDS011;16852;51.446;6.528;2023-12-22T11:00:09;4.82;;;1.60;;
27857;SDS011;16852;51.446;6.528;2023-12-22T11:02:12;9.13;;;2.08;;
27857;SDS011;16852;51.446;6.528;2023-12-22T11:04:17;8.50;;;1.73;;
27857;SDS011;16852;51.446;6.528;2023-12-22T11:08:20;8.43;;;1.73;;
27857;SDS011;16852;51.446;6.528;2023-12-22T11:10:22;5.45;;;1.63;;
27857;SDS011;16852;51.446;6.528;2023-12-22T11:12:24;7.05;;;1.92;;
27857;SDS011;16852;51.446;6.528;2023-12-22T11:14:29;8.10;;;1.80;;
27857;SDS011;16852;51.446;6.528;2023-12-22T11:16:33;5.63;;;1.58;;
27857;SDS011;16852;51.446;6.528;2023-12-22T11:18:34;4.65;;;1.20;;
27857;SDS011;16852;51.446;6.528;2023-12-22T11:20:36;7.60;;;1.73;;
27857;SDS011;16852;51.446;6.528;2023-12-22T11:22:38;7.22;;;1.50;;
27857;SDS011;16852;51.446;6.528;2023-12-22T11:24:40;5.70;;;1.48;;
27857;SDS011;16852;51.446;6.528;2023-12-22T11:26:41;7.45;;;1.50;;
27857;SDS011;16852;51.446;6.528;2023-12-22T11:28:42;8.15;;;1.70;;
27857;SDS011;16852;51.446;6.528;2023-12-22T11:30:45;7.22;;;1.40;;
27857;SDS011;16852;51.446;6.528;2023-12-22T11:32:47;4.78;;;1.20;;
27857;SDS011;16852;51.446;6.528;2023-12-22T11:34:49;7.80;;;1.30;;
27857;SDS011;16852;51.446;6.528;2023-12-22T11:36:52;6.10;;;1.30;;
27857;SDS011;16852;51.446;6.528;2023-12-22T11:40:55;6.50;;;1.50;;
27857;SDS011;16852;51.446;6.528;2023-12-22T11:42:56;5.70;;;1.40;;
27857;SDS011;16852;51.446;6.528;2023-12-22T11:44:58;3.97;;;1.63;;
27857;SDS011;16852;51.446;6.528;2023-12-22T11:47:08;3.50;;;1.30;;
27857;SDS011;16852;51.446;6.528;2023-12-22T11:49:09;4.78;;;1.40;;
27857;SDS011;16852;51.446;6.528;2023-12-22T11:51:13;4.05;;;1.40;;
27857;SDS011;16852;51.446;6.528;2023-12-22T11:53:18;8.63;;;1.92;;
27857;SDS011;16852;51.446;6.528;2023-12-22T11:55:41;4.47;;;1.60;;
27857;SDS011;16852;51.446;6.528;2023-12-22T11:57:58;4.40;;;1.50;;
27857;SDS011;16852;51.446;6.528;2023-12-22T12:02:39;7.13;;;1.48;;
27857;SDS011;16852;51.446;6.528;2023-12-22T12:04:40;5.85;;;1.67;;
27857;SDS011;16852;51.446;6.528;2023-12-22T12:06:41;5.55;;;1.70;;
27857;SDS011;16852;51.446;6.528;2023-12-22T12:08:41;6.28;;;1.50;;
27857;SDS011;16852;51.446;6.528;2023-12-22T12:13:03;6.45;;;1.40;;
27857;SDS011;16852;51.446;6.528;2023-12-22T12:15:13;10.07;;;1.55;;
27857;SDS011;16852;51.446;6.528;2023-12-22T12:17:17;6.25;;;1.70;;
27857;SDS011;16852;51.446;6.528;2023-12-22T12:19:19;6.97;;;1.65;;
27857;SDS011;16852;51.446;6.528;2023-12-22T12:21:20;5.93;;;1.60;;
27857;SDS011;16852;51.446;6.528;2023-12-22T12:23:23;5.85;;;1.70;;
27857;SDS011;16852;51.446;6.528;2023-12-22T12:25:27;6.63;;;1.23;;
27857;SDS011;16852;51.446;6.528;2023-12-22T12:27:29;6.18;;;1.90;;